Flight Track Log - Related Links

Times and Time Zones

All times are in EDT time to prevent confusion due to time zone crossing. See the AWE1821 flight status page for this flight to view local times or setup timezone preferences in your user account.

Time Position Orientation Groundspeed Altitude Reporting Facility
EDT Latitude Longitude Course Direction KTS MPH feet Rate Location/Type
Thu 05:11:09 PM 32.8833 -97.0333 82° East 179 206 1,400  Level Dallas / Fort Worth TRACON
Thu 05:12:03 PM 32.8333 -97.0167 164° South 181 208 3,100 1,474 Climbing Dallas / Fort Worth TRACON
Thu 05:13:03 PM 32.7833 -96.9833 151° Southeast 204 235 4,200 1,150 Climbing Dallas / Fort Worth TRACON
Thu 05:14:00 PM 33.0153 -96.4790 90° East  Level Estimated
Thu 05:14:03 PM 32.7667 -96.9167 107° East 248 285 5,400  Level Dallas / Fort Worth TRACON
Thu 05:15:00 PM 33.0445 -96.3390 75° East  Level Estimated
Thu 05:15:04 PM 32.7667 -96.8333 90° East 299 344 7,200  Level Dallas / Fort Worth TRACON
Thu 05:15:58 PM 32.8000 -96.7500 65° Northeast 298 343 9,100 1,947 Climbing Dallas / Fort Worth TRACON
Thu 05:16:00 PM 33.0736 -96.1989 82° East  Level Estimated
Thu 05:16:58 PM 32.8333 -96.6500 68° East 307 353 10,900  Level Dallas / Fort Worth TRACON
Thu 05:17:34 PM 32.8683 -96.5872 56° Northeast 347 399 11,300 1,313 Climbing Fort Worth Center
Thu 05:18:34 PM 32.9092 -96.4806 65° Northeast 365 420 13,000 1,750 Climbing Fort Worth Center
Thu 05:19:34 PM 32.9503 -96.3761 65° Northeast 385 443 14,800 1,650 Climbing Fort Worth Center
Thu 05:20:34 PM 32.9825 -96.2494 73° East 397 457 16,300 1,450 Climbing Fort Worth Center
Thu 05:21:34 PM 33.0000 -96.1181 81° East 397 457 17,700 1,450 Climbing Fort Worth Center
Thu 05:22:34 PM 33.0194 -95.9814 80° East 403 464 19,200 1,350 Climbing Fort Worth Center
Thu 05:23:34 PM 33.0386 -95.8397 81° East 421 484 20,400 1,250 Climbing Fort Worth Center
Thu 05:24:34 PM 33.0597 -95.6908 80° East 434 499 21,700 1,200 Climbing Fort Worth Center
Thu 05:25:34 PM 33.0744 -95.5592 82° East 445 512 22,800 1,100 Climbing Fort Worth Center
Thu 05:26:34 PM 33.1139 -95.4119 72° East 450 518 23,900 1,100 Climbing Fort Worth Center
Thu 05:27:34 PM 33.1617 -95.2644 69° East 463 533 25,000 550 Climbing Fort Worth Center
Thu 05:28:34 PM 33.2089 -95.1119 70° East 474 545 25,000  Level Fort Worth Center
Thu 05:29:34 PM 33.2522 -94.9642 71° East 474 545 25,000  Level Fort Worth Center
Thu 05:30:34 PM 33.3011 -94.8039 70° East 481 554 25,000 350 Level Fort Worth Center
Thu 05:31:34 PM 33.3497 -94.6383 71° East 502 578 25,700 850 Climbing Fort Worth Center
Thu 05:32:34 PM 33.3981 -94.4725 71° East 515 593 26,700 950 Climbing Fort Worth Center
Thu 05:33:34 PM 33.4483 -94.3067 70° East 526 605 27,600 1,000 Climbing Fort Worth Center
Thu 05:34:34 PM 33.4983 -94.1356 71° East 531 611 28,700 700 Climbing Fort Worth Center
Thu 05:35:34 PM 33.5586 -93.9686 67° East 531 611 29,000 150 Climbing Fort Worth Center
Thu 05:36:34 PM 33.6208 -93.8067 65° Northeast 536 617 29,000  Level Fort Worth Center
Thu 05:37:34 PM 33.6886 -93.6292 65° Northeast 536 617 29,000  Level Fort Worth Center
Thu 05:38:56 PM 33.7725 -93.4083 65° Northeast 521 600 29,000  Level Memphis Center
Thu 05:39:56 PM 33.8347 -93.2456 65° Northeast 521 600 29,000  Level Memphis Center
Thu 05:40:56 PM 33.8989 -93.0850 64° Northeast 521 600 29,000  Level Memphis Center
Thu 05:41:56 PM 33.9586 -92.9192 66° East 526 605 29,000  Level Memphis Center
Thu 05:42:56 PM 34.0203 -92.7556 66° East 532 612 29,000  Level Memphis Center
Thu 05:43:56 PM 34.0797 -92.5867 67° East 538 619 29,000  Level Memphis Center
Thu 05:44:56 PM 34.1433 -92.4225 65° Northeast 538 619 29,000  Level Memphis Center
Thu 05:45:56 PM 34.2022 -92.2558 67° East 538 619 29,000  Level Memphis Center
Thu 05:46:56 PM 34.2650 -92.0914 65° Northeast 532 612 29,000  Level Memphis Center
Thu 05:47:56 PM 34.3236 -91.9264 67° East 532 612 29,000  Level Memphis Center
Thu 05:48:56 PM 34.3861 -91.7589 66° East 538 619 29,000  Level Memphis Center
Thu 05:49:56 PM 34.4378 -91.6114 67° East 538 619 29,000  Level Memphis Center
Thu 05:50:56 PM 34.5019 -91.4483 64° Northeast 538 619 29,000  Level Memphis Center
Thu 05:51:56 PM 34.5617 -91.2778 67° East 544 626 29,000  Level Memphis Center
Thu 05:52:56 PM 34.6233 -91.1092 66° East 544 626 29,000  Level Memphis Center
Thu 05:53:56 PM 34.6806 -90.9431 67° East 533 613 29,000  Level Memphis Center
Thu 05:54:56 PM 34.7417 -90.7742 66° East 538 619 29,000  Level Memphis Center
Thu 05:55:56 PM 34.8089 -90.5872 66° East 543 625 29,000  Level Memphis Center
Thu 05:56:56 PM 34.8675 -90.4153 67° East 538 619 29,000  Level Memphis Center
Thu 05:57:56 PM 34.9258 -90.2481 67° East 538 619 29,000  Level Memphis Center
Thu 05:58:56 PM 34.9861 -90.0783 67° East 538 619 29,000  Level Memphis Center
Thu 05:59:56 PM 35.0419 -89.9006 69° East 543 625 29,000  Level Memphis Center
Thu 06:00:56 PM 35.0850 -89.7406 72° East 553 636 29,000  Level Memphis Center
Thu 06:01:56 PM 35.1300 -89.5597 73° East 553 636 29,000  Level Memphis Center
Thu 06:02:56 PM 35.1744 -89.3842 73° East 548 631 29,000  Level Memphis Center
Thu 06:03:56 PM 35.2211 -89.2056 72° East 543 625 29,000  Level Memphis Center
Thu 06:04:56 PM 35.2692 -89.0142 73° East 538 619 29,000  Level Memphis Center
Thu 06:05:56 PM 35.3150 -88.8381 72° East 538 619 29,000  Level Memphis Center
Thu 06:06:56 PM 35.3586 -88.6564 74° East 538 619 29,000  Level Memphis Center
Thu 06:07:56 PM 35.4039 -88.4797 72° East 538 619 29,000  Level Memphis Center
Thu 06:08:56 PM 35.4472 -88.3053 73° East 538 619 29,000  Level Memphis Center
Thu 06:09:56 PM 35.4942 -88.1258 72° East 538 619 29,000  Level Memphis Center
Thu 06:10:56 PM 35.5367 -87.9461 74° East 538 619 29,000  Level Memphis Center
Thu 06:11:56 PM 35.5831 -87.7658 72° East 543 625 29,000  Level Memphis Center
Thu 06:12:56 PM 35.6250 -87.5858 74° East 537 618 29,000  Level Memphis Center
Thu 06:13:56 PM 35.6689 -87.4056 73° East 537 618 29,000  Level Memphis Center
Thu 06:14:56 PM 35.7103 -87.2250 74° East 543 625 29,000  Level Memphis Center
Thu 06:15:56 PM 35.7264 -87.0378 84° East 543 625 29,000  Level Memphis Center
Thu 06:16:56 PM 35.7400 -86.8506 85° East 548 631 29,000  Level Memphis Center
Thu 06:17:56 PM 35.7511 -86.6608 86° East 548 631 29,000  Level Memphis Center
Thu 06:18:56 PM 35.7628 -86.4967 85° East 548 631 29,000  Level Memphis Center
Thu 06:19:56 PM 35.7733 -86.3067 86° East 548 631 29,000  Level Memphis Center
Thu 06:20:56 PM 35.7881 -86.1192 84° East 548 631 29,000  Level Memphis Center
Thu 06:21:56 PM 35.7981 -85.9319 86° East 548 631 29,000  Level Memphis Center
Thu 06:23:55 PM 35.8194 -85.5650 86° East 539 620 29,000  Level Atlanta Center
Thu 06:24:55 PM 35.8300 -85.3808 86° East 534 615 29,000  Level Atlanta Center
Thu 06:25:55 PM 35.8400 -85.1942 86° East 539 620 29,000  Level Atlanta Center
Thu 06:26:55 PM 35.8500 -85.0097 86° East 539 620 29,000  Level Atlanta Center
Thu 06:27:55 PM 35.8619 -84.7997 86° East 545 627 29,000  Level Atlanta Center
Thu 06:28:55 PM 35.8714 -84.6178 86° East 544 626 29,000  Level Atlanta Center
Thu 06:29:55 PM 35.8803 -84.4308 87° East 539 620 29,000  Level Atlanta Center
Thu 06:30:55 PM 35.8892 -84.2489 86° East 534 615 29,000  Level Atlanta Center
Thu 06:31:55 PM 35.8956 -84.0644 87° East 534 615 29,000 -250 Level Atlanta Center
Thu 06:32:55 PM 35.9039 -83.8797 87° East 534 615 28,500 -700 Descending Atlanta Center
Thu 06:33:55 PM 35.8992 -83.7003 92° East 527 606 27,600 -950 Descending Atlanta Center
Thu 06:34:55 PM 35.8986 -83.5208 90° East 527 606 26,600 -1,000 Descending Atlanta Center
Thu 06:35:55 PM 35.8958 -83.3544 91° East 510 587 25,600 -900 Descending Atlanta Center
Thu 06:36:55 PM 35.8906 -83.2083 93° East 492 566 24,800 -800 Descending Atlanta Center
Thu 06:37:55 PM 35.9000 -83.0442 86° East 473 544 24,000 -400 Descending Atlanta Center
Thu 06:38:55 PM 35.9194 -82.8850 81° East 473 544 24,000  Level Atlanta Center
Thu 06:39:55 PM 35.9408 -82.7256 81° East 467 537 24,000  Level Atlanta Center
Thu 06:40:55 PM 35.9597 -82.5661 82° East 467 537 24,000 -100 Level Atlanta Center
Thu 06:41:55 PM 35.9806 -82.4067 81° East 467 537 23,800 -950 Descending Atlanta Center
Thu 06:42:55 PM 36.0053 -82.2342 80° East 467 537 22,100 -1,900 Descending Atlanta Center
Thu 06:43:55 PM 36.0261 -82.0850 80° East 462 532 20,000 -1,950 Descending Atlanta Center
Thu 06:44:55 PM 36.0011 -81.9622 104° East 414 476 18,200 -1,800 Descending Atlanta Center
Thu 06:45:55 PM 35.9183 -81.8825 142° Southeast 362 417 16,400 -1,750 Descending Atlanta Center
Thu 06:46:55 PM 35.8419 -81.8100 142° Southeast 349 402 14,700 -1,500 Descending Atlanta Center
Thu 06:47:55 PM 35.7633 -81.7356 142° Southeast 349 402 13,400 -1,478 Descending Atlanta Center
Thu 06:48:04 PM 35.7444 -81.7206 147° Southeast 347 399 13,000 -2,000 Descending Atlanta Center
Thu 06:48:55 PM 35.6911 -81.6658 140° Southeast 344 396 11,400 -1,500 Descending Atlanta Center
Thu 06:49:24 PM 35.6486 -81.6289 145° Southeast 337 388 11,000 -231 Descending Atlanta Center
Thu 06:50:13 PM 35.5911 -81.5642 138° Southeast 328 377 11,100  Climbing Atlanta Center
Thu 06:50:55 PM 35.5586 -81.5089 126° Southeast 330 380 11,000 -537 Descending Atlanta Center
Thu 06:51:20 PM 35.5533 -81.4531 97° East 332 382 10,500 -1,200 Descending Atlanta Center
Thu 06:51:55 PM 35.5625 -81.3992 78° East 301 346 9,800 -1,377 Descending Atlanta Center
Thu 06:52:21 PM 35.5675 -81.3400 84° East 326 375 9,100 -800 Descending Atlanta Center
Thu 06:52:55 PM 35.5728 -81.2914 82° East 317 365 9,000 -702 Descending Atlanta Center
Thu 06:53:55 PM 35.5828 -81.1789 84° East 317 365 8,000 -1,326 Descending Atlanta Center
Thu 06:54:30 PM 35.5914 -81.1069 82° East 312 359 6,900 -1,600 Descending Atlanta Center
Thu 06:54:55 PM 35.5947 -81.0736 83° East 311 358 6,400 -1,574 Descending Atlanta Center
Thu 06:55:31 PM 35.5933 -81.0100 92° East 289 333 5,300 -1,300 Descending Atlanta Center
Thu 06:55:55 PM 35.5761 -80.9875 133° Southeast 289 333 5,100 -295 Descending Atlanta Center
Thu 06:56:32 PM 35.5303 -80.9942 187° South 223 257 5,000  Descending Atlanta Center
Thu 06:56:55 PM 35.5136 -80.9950 182° South 187 215 5,100  Climbing Atlanta Center
Thu 06:57:33 PM 35.4758 -80.9911 175° South 177 204 5,000 -100 Descending Atlanta Center
Thu 06:57:55 PM 35.4614 -80.9892 174° South 192 221 5,000 -218 Level Atlanta Center
Thu 06:58:28 PM 35.4300 -80.9878 178° South 180 207 4,800 -766 Descending Atlanta Center
Thu 06:59:29 PM 35.3797 -80.9847 177° South 183 211 3,800 -934 Descending Atlanta Center
Thu 07:00:30 PM 35.3339 -80.9811 176° South 155 178 2,900 -791 Descending Atlanta Center
Thu 07:01:38 PM 35.2900 -80.9753 174° South 138 159 2,100 -698 Descending Atlanta Center
Thu 07:02:39 PM 35.2522 -80.9714 175° South 140 161 1,400 -689 Descending Atlanta Center
Thu 07:04:00 PM 35.2137 -80.9491 175° South  Level Estimated
Thu 07:11:00 PM 35.2137 -80.9491 39° Northeast  Level Estimated

Login

Don't have an account? Register now (free) for customized features, flight alerts, and more!